createdAt,value
2023-04-18T00:02:07.125Z,7.50
2023-04-18T00:04:35.266Z,7.20
2023-04-18T00:07:03.097Z,6.30
2023-04-18T00:09:32.351Z,6.70
2023-04-18T00:12:01.475Z,6.47
2023-04-18T00:14:30.025Z,7.30
2023-04-18T00:16:57.881Z,7.07
2023-04-18T00:19:26.113Z,6.93
2023-04-18T00:21:53.922Z,6.60
2023-04-18T00:24:22.126Z,7.27
2023-04-18T00:26:51.253Z,7.10
2023-04-18T00:29:19.046Z,6.47
2023-04-18T00:31:46.885Z,7.03
2023-04-18T00:34:15.040Z,7.10
2023-04-18T00:36:43.028Z,7.13
2023-04-18T00:39:10.839Z,7.10
2023-04-18T00:41:38.713Z,6.70
2023-04-18T00:44:07.887Z,7.20
2023-04-18T00:46:35.921Z,6.00
2023-04-18T00:49:03.846Z,7.00
2023-04-18T00:51:33.467Z,7.13
2023-04-18T00:54:02.872Z,6.70
2023-04-18T00:56:30.736Z,6.77
2023-04-18T00:58:59.221Z,6.30
2023-04-18T01:01:28.559Z,6.80
2023-04-18T01:03:56.671Z,7.00
2023-04-18T01:06:25.449Z,6.17
2023-04-18T01:08:54.653Z,6.87
2023-04-18T01:11:22.625Z,6.30
2023-04-18T01:14:01.647Z,6.10
2023-04-18T01:16:36.772Z,6.53
2023-04-18T01:19:06.005Z,6.30
2023-04-18T01:21:36.115Z,6.37
2023-04-18T01:24:12.043Z,6.03
2023-04-18T01:26:44.904Z,5.93
2023-04-18T01:29:13.160Z,6.27
2023-04-18T01:31:41.833Z,5.90
2023-04-18T01:34:09.803Z,6.00
2023-04-18T01:36:39.118Z,6.23
2023-04-18T01:39:09.317Z,6.23
2023-04-18T01:41:37.288Z,6.00
2023-04-18T01:44:05.607Z,5.80
2023-04-18T01:46:34.218Z,5.63
2023-04-18T01:49:02.840Z,5.40
2023-04-18T01:51:31.233Z,5.83
2023-04-18T01:53:59.412Z,5.60
2023-04-18T01:56:28.593Z,5.53
2023-04-18T01:58:59.322Z,5.17
2023-04-18T02:01:27.532Z,5.53
2023-04-18T02:03:55.554Z,4.77
2023-04-18T02:06:23.755Z,5.47
2023-04-18T02:08:51.726Z,5.00
2023-04-18T02:11:19.618Z,5.10
2023-04-18T02:13:48.802Z,4.97
2023-04-18T02:16:16.978Z,5.20
2023-04-18T02:18:45.304Z,5.30
2023-04-18T02:21:14.746Z,5.67
2023-04-18T02:23:42.645Z,4.37
2023-04-18T02:26:10.497Z,4.93
2023-04-18T02:28:39.047Z,4.03
2023-04-18T02:31:14.419Z,4.70
2023-04-18T02:33:43.258Z,4.93
2023-04-18T02:36:12.754Z,4.87
2023-04-18T02:38:41.016Z,4.70
2023-04-18T02:41:09.069Z,4.93
2023-04-18T02:43:37.053Z,4.50
2023-04-18T02:46:05.129Z,4.47
2023-04-18T02:48:35.297Z,4.23
2023-04-18T02:51:04.124Z,4.60
2023-04-18T02:53:34.660Z,4.63
2023-04-18T02:56:02.940Z,4.47
2023-04-18T02:58:50.878Z,4.87
2023-04-18T03:01:43.975Z,4.17
2023-04-18T03:04:16.567Z,4.40
2023-04-18T03:06:50.216Z,4.70
2023-04-18T03:09:19.825Z,5.03
2023-04-18T03:11:52.100Z,4.70
2023-04-18T03:14:25.410Z,4.90
2023-04-18T03:16:56.357Z,5.07
2023-04-18T03:19:32.025Z,4.53
2023-04-18T03:22:05.959Z,4.73
2023-04-18T03:24:35.738Z,4.90
2023-04-18T03:27:07.172Z,4.50
2023-04-18T03:29:37.042Z,4.70
2023-04-18T03:32:05.685Z,4.97
2023-04-18T03:34:34.864Z,4.63
2023-04-18T03:37:05.185Z,4.83
2023-04-18T03:39:38.075Z,4.50
2023-04-18T03:42:06.249Z,5.23
2023-04-18T03:44:35.544Z,5.43
2023-04-18T03:47:04.873Z,4.80
2023-04-18T03:49:36.634Z,4.97
2023-04-18T03:52:05.324Z,5.50
2023-04-18T03:54:33.372Z,5.47
2023-04-18T03:57:03.035Z,5.23
2023-04-18T03:59:33.031Z,5.37
2023-04-18T04:02:01.555Z,5.37
2023-04-18T04:04:29.785Z,5.70
2023-04-18T04:06:59.776Z,5.67
2023-04-18T04:09:27.851Z,5.50
2023-04-18T04:11:55.891Z,4.90
2023-04-18T04:14:25.232Z,5.37
2023-04-18T04:16:54.648Z,5.73
2023-04-18T04:19:23.642Z,5.80
2023-04-18T04:22:02.438Z,6.87
2023-04-18T04:24:30.836Z,5.90
2023-04-18T04:26:59.624Z,5.63
2023-04-18T04:29:28.955Z,5.40
2023-04-18T04:31:59.677Z,5.83
2023-04-18T04:34:34.439Z,5.20
2023-04-18T04:37:06.763Z,6.10
2023-04-18T04:39:41.112Z,4.97
2023-04-18T04:42:25.224Z,5.80
2023-04-18T04:45:01.524Z,5.90
2023-04-18T04:47:29.620Z,5.60
2023-04-18T04:49:57.446Z,5.73
2023-04-18T04:52:26.855Z,5.53
2023-04-18T04:54:54.934Z,5.17
2023-04-18T04:57:25.029Z,6.50
2023-04-18T04:59:53.624Z,5.70
2023-04-18T05:02:23.468Z,5.57
2023-04-18T05:04:51.608Z,5.10
2023-04-18T05:07:19.589Z,5.60
2023-04-18T05:09:49.591Z,5.23
2023-04-18T05:12:17.592Z,5.93
2023-04-18T05:14:45.552Z,5.27
2023-04-18T05:17:13.449Z,5.83
2023-04-18T05:19:43.333Z,5.83
2023-04-18T05:22:11.404Z,5.90
2023-04-18T05:24:39.415Z,5.43
2023-04-18T05:27:08.789Z,5.93
2023-04-18T05:29:36.640Z,5.63
2023-04-18T05:32:05.459Z,5.40
2023-04-18T05:34:37.973Z,5.53
2023-04-18T05:37:06.636Z,5.70
2023-04-18T05:39:34.616Z,5.77
2023-04-18T05:42:22.597Z,6.17
2023-04-18T05:44:50.624Z,5.90
2023-04-18T05:47:18.552Z,6.23
2023-04-18T05:49:46.522Z,5.77
2023-04-18T05:52:14.383Z,7.20
2023-04-18T05:54:42.286Z,6.40
2023-04-18T05:57:10.246Z,7.43
2023-04-18T05:59:39.476Z,7.07
2023-04-18T06:02:13.318Z,7.70
2023-04-18T06:04:42.474Z,8.03
2023-04-18T06:07:11.128Z,7.23
2023-04-18T06:09:39.235Z,7.33
2023-04-18T06:12:07.259Z,8.03
2023-04-18T06:14:35.440Z,7.80
2023-04-18T06:17:07.308Z,7.13
2023-04-18T06:19:35.278Z,6.75
2023-04-18T06:22:03.239Z,8.00
2023-04-18T06:24:31.350Z,8.77
2023-04-18T06:26:59.498Z,8.57
2023-04-18T06:29:30.227Z,8.10
2023-04-18T06:31:58.276Z,8.10
2023-04-18T06:34:27.505Z,8.03
2023-04-18T06:36:55.932Z,7.67
2023-04-18T06:39:23.867Z,7.43
2023-04-18T06:41:51.917Z,5.93
2023-04-18T06:44:28.830Z,6.63
2023-04-18T06:46:56.949Z,7.10
2023-04-18T06:49:26.411Z,7.03
2023-04-18T06:51:55.988Z,7.43
2023-04-18T06:54:23.988Z,7.97
2023-04-18T06:56:53.681Z,7.50
2023-04-18T06:59:21.659Z,7.77
2023-04-18T07:01:50.630Z,6.47
2023-04-18T07:04:19.100Z,7.27
2023-04-18T07:06:47.446Z,8.27
2023-04-18T07:09:16.796Z,7.63
2023-04-18T07:11:44.728Z,8.10
2023-04-18T07:14:12.903Z,5.60
2023-04-18T07:16:41.256Z,6.70
2023-04-18T07:19:09.201Z,7.50
2023-04-18T07:21:38.709Z,7.07
2023-04-18T07:24:06.959Z,8.00
2023-04-18T07:26:37.955Z,6.63
2023-04-18T07:29:06.435Z,8.40
2023-04-18T07:31:34.451Z,7.10
2023-04-18T07:34:02.463Z,6.70
2023-04-18T07:36:31.355Z,7.30
2023-04-18T07:38:59.302Z,7.60
2023-04-18T07:41:27.285Z,7.03
2023-04-18T07:43:57.812Z,7.30
2023-04-18T07:46:25.938Z,8.13
2023-04-18T07:48:53.933Z,7.33
2023-04-18T07:51:22.165Z,7.77
2023-04-18T07:53:50.149Z,6.87
2023-04-18T07:56:19.105Z,6.97
2023-04-18T07:58:47.089Z,8.70
2023-04-18T08:01:18.463Z,7.63
2023-04-18T08:03:47.379Z,7.27
2023-04-18T08:06:16.763Z,7.97
2023-04-18T08:08:44.815Z,8.50
2023-04-18T08:11:12.781Z,7.57
2023-04-18T08:13:40.778Z,7.30
2023-04-18T08:16:09.458Z,8.20
2023-04-18T08:18:38.958Z,8.73
2023-04-18T08:21:06.816Z,8.47
2023-04-18T08:23:34.787Z,7.33
2023-04-18T08:26:02.765Z,7.97
2023-04-18T08:28:30.721Z,7.90
2023-04-18T08:30:58.791Z,8.63
2023-04-18T08:33:27.257Z,9.63
2023-04-18T08:35:56.492Z,8.80
2023-04-18T08:38:24.322Z,10.17
2023-04-18T08:40:52.320Z,9.70
2023-04-18T08:43:20.402Z,9.97
2023-04-18T08:45:48.469Z,10.00
2023-04-18T08:48:17.878Z,9.33
2023-04-18T08:50:46.043Z,10.00
2023-04-18T08:53:17.678Z,8.70
2023-04-18T08:55:47.709Z,8.87
2023-04-18T08:58:22.307Z,9.47
2023-04-18T09:00:52.114Z,10.07
2023-04-18T09:03:39.938Z,8.70
2023-04-18T09:06:13.602Z,9.40
2023-04-18T09:08:44.363Z,9.13
2023-04-18T09:11:28.813Z,8.10
2023-04-18T09:13:58.612Z,9.20
2023-04-18T09:16:27.783Z,9.50
2023-04-18T09:19:11.272Z,9.27
2023-04-18T09:21:41.101Z,8.47
2023-04-18T09:24:21.164Z,9.70
2023-04-18T09:26:49.927Z,9.77
2023-04-18T09:29:18.639Z,8.40
2023-04-18T09:32:00.089Z,9.20
2023-04-18T09:34:29.391Z,8.90
2023-04-18T09:37:09.337Z,9.50
2023-04-18T09:39:39.789Z,9.37
2023-04-18T09:42:10.366Z,9.20
2023-04-18T09:44:38.756Z,9.23
2023-04-18T09:47:07.935Z,9.20
2023-04-18T09:49:35.902Z,9.40
2023-04-18T09:52:08.423Z,8.40
2023-04-18T09:54:40.029Z,9.10
2023-04-18T09:57:13.581Z,8.57
2023-04-18T09:59:51.096Z,9.03
2023-04-18T10:02:23.037Z,9.40
2023-04-18T10:04:54.355Z,10.43
2023-04-18T10:07:25.873Z,9.70
2023-04-18T10:09:55.429Z,8.52
2023-04-18T10:12:24.328Z,10.15
2023-04-18T10:14:54.189Z,9.60
2023-04-18T10:17:22.335Z,9.18
2023-04-18T10:20:06.537Z,8.98
2023-04-18T10:22:35.533Z,9.50
2023-04-18T10:25:06.745Z,10.02
2023-04-18T10:27:58.439Z,10.52
2023-04-18T10:31:05.246Z,9.95
2023-04-18T10:33:40.867Z,10.13
2023-04-18T10:36:17.364Z,11.70
2023-04-18T10:38:50.303Z,11.23
2023-04-18T10:41:24.762Z,11.80
2023-04-18T10:44:18.475Z,11.50
2023-04-18T10:47:21.070Z,11.35
2023-04-18T10:50:01.538Z,11.60
2023-04-18T10:52:30.943Z,11.82
2023-04-18T10:55:12.957Z,12.80
2023-04-18T10:57:45.019Z,12.07
2023-04-18T11:00:18.554Z,13.50
2023-04-18T11:02:53.817Z,12.57
2023-04-18T11:05:26.680Z,11.77
2023-04-18T11:07:55.133Z,13.57
2023-04-18T11:10:26.289Z,14.45
2023-04-18T11:12:56.471Z,13.35
2023-04-18T11:15:25.727Z,10.10
2023-04-18T11:18:00.399Z,12.02
2023-04-18T11:20:30.226Z,11.43
2023-04-18T11:23:00.675Z,11.60
2023-04-18T11:25:31.889Z,12.10
2023-04-18T11:28:03.925Z,10.25
2023-04-18T11:30:37.719Z,10.55
2023-04-18T11:33:07.635Z,8.85
2023-04-18T11:35:38.976Z,10.00
2023-04-18T11:38:08.578Z,11.13
2023-04-18T11:40:37.276Z,11.68
2023-04-18T11:43:07.644Z,12.50
2023-04-18T11:45:36.112Z,12.20
2023-04-18T11:48:04.172Z,11.48
2023-04-18T11:50:37.138Z,11.35
2023-04-18T11:53:05.212Z,12.35
2023-04-18T11:55:33.286Z,11.88
2023-04-18T11:58:02.416Z,11.07
2023-04-18T12:00:34.547Z,11.50
2023-04-18T12:03:05.503Z,9.65
2023-04-18T12:05:36.913Z,11.55
2023-04-18T12:08:07.859Z,10.00
2023-04-18T12:10:36.083Z,9.80
2023-04-18T12:13:08.402Z,9.88
2023-04-18T12:15:42.152Z,9.68
2023-04-18T12:18:13.674Z,9.52
2023-04-18T12:20:52.386Z,10.50
2023-04-18T12:23:35.686Z,9.93
2023-04-18T12:26:05.654Z,9.65
2023-04-18T12:28:35.222Z,10.20
2023-04-18T12:31:07.176Z,11.00
2023-04-18T12:33:36.733Z,11.30
2023-04-18T12:36:06.043Z,9.48
2023-04-18T12:38:35.220Z,9.60
2023-04-18T12:41:03.307Z,9.35
2023-04-18T12:43:31.272Z,9.77
2023-04-18T12:45:59.905Z,10.68
2023-04-18T12:48:29.163Z,10.10
2023-04-18T12:50:57.133Z,9.48
2023-04-18T12:53:25.613Z,9.23
2023-04-18T12:55:53.598Z,11.00
2023-04-18T12:58:21.684Z,9.73
2023-04-18T13:00:49.763Z,10.40
2023-04-18T13:03:17.935Z,9.77
2023-04-18T13:05:47.455Z,9.18
2023-04-18T13:08:17.520Z,10.10
2023-04-18T13:10:47.593Z,9.38
2023-04-18T13:13:15.717Z,9.40
2023-04-18T13:15:43.597Z,8.68
2023-04-18T13:18:11.532Z,8.52
2023-04-18T13:20:39.394Z,8.60
2023-04-18T13:23:08.536Z,9.27
2023-04-18T13:25:36.439Z,7.78
2023-04-18T13:28:04.609Z,8.82
2023-04-18T13:30:34.125Z,7.78
2023-04-18T13:33:02.089Z,8.98
2023-04-18T13:35:30.456Z,8.55
2023-04-18T13:37:58.837Z,8.25
2023-04-18T13:40:28.054Z,8.13
2023-04-18T13:42:55.916Z,7.63
2023-04-18T13:45:24.184Z,7.93
2023-04-18T13:47:52.057Z,7.75
2023-04-18T13:50:20.272Z,6.53
2023-04-18T13:52:49.293Z,7.78
2023-04-18T13:55:17.621Z,8.43
2023-04-18T13:57:46.781Z,7.50
2023-04-18T14:00:16.665Z,7.25
2023-04-18T14:02:44.627Z,7.07
2023-04-18T14:05:12.720Z,7.53
2023-04-18T14:07:40.563Z,8.00
2023-04-18T14:10:09.366Z,7.15
2023-04-18T14:12:37.490Z,6.72
2023-04-18T14:15:09.139Z,7.20
2023-04-18T14:17:36.980Z,7.75
2023-04-18T14:20:06.592Z,6.28
2023-04-18T14:22:34.493Z,7.00
2023-04-18T14:25:03.777Z,7.00
2023-04-18T14:27:32.808Z,7.15
2023-04-18T14:30:00.906Z,7.00
2023-04-18T14:32:30.157Z,5.72
2023-04-18T14:34:59.104Z,7.57
2023-04-18T14:37:27.192Z,7.50
2023-04-18T14:39:55.147Z,7.05
2023-04-18T14:42:22.928Z,7.35
2023-04-18T14:44:50.885Z,5.82
2023-04-18T14:47:18.673Z,6.95
2023-04-18T14:49:47.857Z,7.60
2023-04-18T14:52:15.862Z,7.43
2023-04-18T14:54:43.905Z,7.28
2023-04-18T14:57:14.303Z,6.85
2023-04-18T14:59:42.589Z,7.13
2023-04-18T15:02:10.440Z,7.28
2023-04-18T15:04:38.444Z,6.63
2023-04-18T15:07:07.697Z,7.30
2023-04-18T15:09:39.053Z,6.43
2023-04-18T15:12:07.718Z,6.40
2023-04-18T15:14:39.594Z,6.15
2023-04-18T15:17:07.517Z,4.97
2023-04-18T15:19:35.296Z,5.38
2023-04-18T15:22:03.271Z,6.57
2023-04-18T15:24:32.452Z,5.82
2023-04-18T15:27:01.339Z,6.50
2023-04-18T15:29:29.435Z,6.68
2023-04-18T15:31:57.338Z,6.57
2023-04-18T15:34:25.783Z,5.35
2023-04-18T15:36:53.620Z,6.20
2023-04-18T15:39:23.907Z,6.50
2023-04-18T15:41:54.613Z,5.90
2023-04-18T15:44:22.938Z,6.43
2023-04-18T15:46:51.004Z,6.20
2023-04-18T15:49:18.952Z,5.38
2023-04-18T15:51:46.854Z,6.55
2023-04-18T15:54:14.904Z,7.07
2023-04-18T15:56:44.667Z,6.20
2023-04-18T15:59:13.819Z,6.40
2023-04-18T16:01:44.440Z,5.93
2023-04-18T16:04:16.757Z,6.40
2023-04-18T16:06:44.613Z,5.68
2023-04-18T16:09:14.537Z,6.38
2023-04-18T16:11:42.466Z,6.35
2023-04-18T16:14:10.230Z,6.68
2023-04-18T16:16:39.406Z,5.43
2023-04-18T16:19:07.302Z,6.57
2023-04-18T16:21:35.191Z,5.88
2023-04-18T16:24:02.891Z,6.45
2023-04-18T16:26:31.008Z,6.95
2023-04-18T16:28:59.200Z,6.53
2023-04-18T16:31:27.050Z,6.25
2023-04-18T16:33:56.450Z,4.97
2023-04-18T16:36:24.352Z,7.22
2023-04-18T16:38:52.213Z,6.80
2023-04-18T16:41:19.942Z,5.60
2023-04-18T16:43:47.845Z,6.63
2023-04-18T16:46:15.846Z,6.72
2023-04-18T16:48:45.153Z,6.78
2023-04-18T16:51:14.429Z,6.57
2023-04-18T16:53:42.297Z,6.75
2023-04-18T16:56:10.174Z,8.63
2023-04-18T16:58:37.971Z,6.25
2023-04-18T17:01:07.940Z,6.50
2023-04-18T17:03:36.613Z,6.75
2023-04-18T17:06:05.702Z,6.78
2023-04-18T17:08:35.715Z,6.50
2023-04-18T17:11:03.621Z,7.07
2023-04-18T17:13:31.608Z,6.95
2023-04-18T17:15:59.677Z,6.72
2023-04-18T17:18:27.551Z,5.70
2023-04-18T17:20:55.322Z,6.78
2023-04-18T17:23:23.159Z,6.88
2023-04-18T17:25:52.289Z,6.57
2023-04-18T17:28:21.245Z,7.43
2023-04-18T17:30:50.356Z,7.23
2023-04-18T17:33:18.134Z,6.75
2023-04-18T17:35:46.019Z,6.70
2023-04-18T17:38:13.911Z,6.63
2023-04-18T17:40:41.687Z,6.80
2023-04-18T17:43:11.180Z,6.90
2023-04-18T17:45:39.318Z,7.00
2023-04-18T17:48:07.107Z,6.68
2023-04-18T17:50:37.010Z,6.32
2023-04-18T17:53:05.043Z,6.53
2023-04-18T17:55:32.850Z,6.60
2023-04-18T17:58:00.683Z,7.17
2023-04-18T18:00:30.471Z,5.97
2023-04-18T18:03:00.724Z,6.43
2023-04-18T18:05:30.229Z,6.83
2023-04-18T18:08:01.004Z,7.17
2023-04-18T18:10:29.292Z,6.60
2023-04-18T18:12:57.203Z,7.30
2023-04-18T18:15:25.316Z,7.47
2023-04-18T18:17:55.348Z,7.43
2023-04-18T18:20:23.516Z,6.93
2023-04-18T18:22:53.210Z,7.67
2023-04-18T18:25:21.550Z,8.37
2023-04-18T18:27:51.152Z,7.97
2023-04-18T18:30:19.381Z,7.73
2023-04-18T18:32:47.312Z,8.00
2023-04-18T18:35:16.670Z,8.10
2023-04-18T18:37:44.562Z,8.20
2023-04-18T18:40:13.134Z,9.50
2023-04-18T18:42:42.384Z,8.27
2023-04-18T18:45:10.659Z,7.87
2023-04-18T18:47:40.016Z,7.40
2023-04-18T18:50:09.467Z,7.87
2023-04-18T18:52:41.557Z,8.00
2023-04-18T18:55:10.564Z,8.23
2023-04-18T18:57:38.393Z,7.77
2023-04-18T19:00:11.515Z,8.23
2023-04-18T19:02:40.093Z,7.73
2023-04-18T19:05:09.027Z,8.13
2023-04-18T19:07:38.935Z,7.90
2023-04-18T19:10:09.102Z,8.07
2023-04-18T19:12:37.616Z,7.70
2023-04-18T19:15:07.007Z,8.30
2023-04-18T19:17:35.245Z,8.70
2023-04-18T19:20:03.958Z,8.53
2023-04-18T19:22:31.887Z,8.30
2023-04-18T19:25:01.181Z,8.27
2023-04-18T19:27:29.003Z,8.53
2023-04-18T19:29:56.883Z,8.50
2023-04-18T19:32:24.657Z,8.13
2023-04-18T19:34:52.736Z,7.90
2023-04-18T19:37:20.670Z,8.43
2023-04-18T19:39:48.364Z,8.17
2023-04-18T19:42:17.554Z,8.73
2023-04-18T19:44:45.637Z,8.20
2023-04-18T19:47:13.410Z,8.80
2023-04-18T19:49:41.286Z,8.77
2023-04-18T19:52:09.185Z,9.37
2023-04-18T19:54:36.930Z,9.13
2023-04-18T19:57:06.165Z,9.00
2023-04-18T19:59:35.438Z,8.40
2023-04-18T20:02:05.826Z,9.40
2023-04-18T20:04:34.561Z,8.80
2023-04-18T20:07:02.911Z,9.50
2023-04-18T20:09:30.699Z,9.50
2023-04-18T20:12:00.378Z,9.80
2023-04-18T20:14:28.831Z,9.80
2023-04-18T20:16:58.074Z,9.87
2023-04-18T20:19:26.766Z,9.80
2023-04-18T20:21:54.576Z,10.67
2023-04-18T20:24:23.758Z,9.63
2023-04-18T20:26:51.875Z,9.77
2023-04-18T20:29:19.754Z,9.50
2023-04-18T20:31:47.647Z,9.87
2023-04-18T20:34:16.795Z,10.67
2023-04-18T20:36:46.535Z,10.17
2023-04-18T20:39:15.448Z,10.30
2023-04-18T20:41:46.996Z,9.27
2023-04-18T20:44:16.344Z,9.57
2023-04-18T20:46:44.085Z,10.13
2023-04-18T20:49:11.880Z,9.57
2023-04-18T20:51:41.213Z,9.13
2023-04-18T20:54:09.123Z,10.27
2023-04-18T20:56:37.116Z,10.00
2023-04-18T20:59:05.024Z,9.10
2023-04-18T21:01:32.897Z,10.17
2023-04-18T21:04:00.834Z,9.33
2023-04-18T21:06:29.015Z,9.93
2023-04-18T21:08:58.231Z,8.20
2023-04-18T21:11:26.042Z,9.10
2023-04-18T21:13:53.880Z,10.43
2023-04-18T21:16:23.710Z,9.70
2023-04-18T21:18:53.022Z,10.30
2023-04-18T21:21:20.957Z,9.07
2023-04-18T21:23:48.710Z,10.10
2023-04-18T21:26:17.912Z,9.90
2023-04-18T21:28:56.042Z,9.93
2023-04-18T21:31:24.880Z,10.00
2023-04-18T21:33:53.731Z,9.23
2023-04-18T21:36:22.890Z,9.53
2023-04-18T21:38:52.530Z,9.27
2023-04-18T21:41:23.598Z,9.60
2023-04-18T21:43:52.447Z,10.03
2023-04-18T21:46:20.684Z,9.93
2023-04-18T21:48:48.735Z,10.10
2023-04-18T21:51:17.377Z,10.00
2023-04-18T21:53:45.406Z,10.07
2023-04-18T21:56:14.037Z,9.60
2023-04-18T21:58:43.256Z,9.67
2023-04-18T22:01:11.264Z,9.57
2023-04-18T22:03:39.573Z,9.93
2023-04-18T22:06:07.788Z,9.87
2023-04-18T22:08:35.908Z,9.47
2023-04-18T22:11:04.563Z,8.97
2023-04-18T22:13:35.681Z,9.07
2023-04-18T22:16:08.084Z,8.57
2023-04-18T22:18:37.993Z,9.53
2023-04-18T22:21:06.626Z,9.43
2023-04-18T22:23:34.394Z,9.53
2023-04-18T22:26:02.308Z,10.00
2023-04-18T22:28:30.074Z,9.40
2023-04-18T22:30:58.217Z,9.53
2023-04-18T22:33:28.325Z,9.63
2023-04-18T22:35:56.218Z,10.10
2023-04-18T22:38:25.492Z,9.83
2023-04-18T22:40:53.575Z,9.57
2023-04-18T22:43:23.644Z,9.63
2023-04-18T22:45:51.565Z,9.93
2023-04-18T22:48:20.513Z,8.97
2023-04-18T22:50:49.970Z,9.67
2023-04-18T22:53:18.228Z,10.47
2023-04-18T22:55:46.487Z,9.53
2023-04-18T22:58:14.431Z,9.90
2023-04-18T23:00:42.612Z,8.40
2023-04-18T23:03:10.716Z,9.57
2023-04-18T23:05:38.580Z,10.07
2023-04-18T23:08:07.924Z,9.13
2023-04-18T23:10:35.839Z,9.60
2023-04-18T23:13:03.692Z,9.33
2023-04-18T23:15:31.518Z,10.07
2023-04-18T23:17:59.399Z,9.00
2023-04-18T23:20:27.292Z,9.33
2023-04-18T23:22:55.822Z,8.77
2023-04-18T23:25:25.251Z,9.50
2023-04-18T23:27:53.071Z,10.23
2023-04-18T23:30:20.917Z,8.93
2023-04-18T23:32:48.869Z,9.17
2023-04-18T23:35:17.291Z,8.90
2023-04-18T23:37:45.145Z,8.53
2023-04-18T23:40:12.967Z,9.17
2023-04-18T23:42:42.193Z,8.30
2023-04-18T23:45:11.531Z,8.35
2023-04-18T23:47:39.630Z,8.53
2023-04-18T23:50:09.280Z,7.83
2023-04-18T23:52:38.498Z,8.47
2023-04-18T23:55:07.471Z,7.70
2023-04-18T23:57:35.583Z,7.00
